createdAt,value
2022-12-04T08:20:55.620Z,218.02
2022-12-04T08:23:23.115Z,181.35
2022-12-04T08:25:50.566Z,180.93
2022-12-04T08:28:18.037Z,166.63
2022-12-04T08:30:45.573Z,165.00
2022-12-04T08:33:13.105Z,183.30
2022-12-04T08:35:40.595Z,196.35
2022-12-04T08:38:09.426Z,160.18
2022-12-04T08:40:36.898Z,194.43
2022-12-04T08:43:04.475Z,181.02
2022-12-04T08:45:32.099Z,167.15
2022-12-04T08:47:59.715Z,161.38
2022-12-04T08:50:27.262Z,138.05
2022-12-04T08:52:54.824Z,146.90
2022-12-04T08:55:23.733Z,151.45
2022-12-04T08:57:51.895Z,120.22
2022-12-04T09:00:20.106Z,139.18
2022-12-04T09:02:49.735Z,171.65
2022-12-04T09:05:17.530Z,138.18
2022-12-04T09:07:45.113Z,117.43
2022-12-04T09:10:13.556Z,134.30
2022-12-04T09:12:42.479Z,124.78
2022-12-04T09:15:10.866Z,118.68
2022-12-04T09:17:38.356Z,110.30
2022-12-04T09:20:08.381Z,120.32
2022-12-04T09:23:02.400Z,106.75
2022-12-04T09:25:24.179Z,116.93
2022-12-04T09:27:52.987Z,99.35
2022-12-04T09:30:20.726Z,121.57
2022-12-04T09:32:48.245Z,110.22
2022-12-04T09:35:15.711Z,108.07
2022-12-04T09:37:43.157Z,109.75
2022-12-04T09:40:21.797Z,101.95
2022-12-04T09:42:57.878Z,99.53
2022-12-04T09:45:27.568Z,112.07
2022-12-04T09:47:57.922Z,105.45
2022-12-04T09:50:29.924Z,98.95
2022-12-04T09:53:02.214Z,105.22
2022-12-04T09:55:34.408Z,110.22
2022-12-04T09:58:06.162Z,98.25
2022-12-04T10:00:40.167Z,102.78
2022-12-04T10:03:15.204Z,101.47
2022-12-04T10:05:53.590Z,95.55
2022-12-04T10:08:23.801Z,91.10
2022-12-04T10:11:00.888Z,101.82
2022-12-04T10:13:54.079Z,95.63
2022-12-04T10:16:28.732Z,87.35
2022-12-04T10:19:03.600Z,111.47
2022-12-04T10:21:40.168Z,99.57
2022-12-04T10:24:34.522Z,104.75
2022-12-04T10:27:07.210Z,108.63
2022-12-04T10:29:38.825Z,92.00
2022-12-04T10:32:18.138Z,98.88
2022-12-04T10:34:47.657Z,116.10
2022-12-04T10:37:16.402Z,96.70
2022-12-04T10:39:48.548Z,131.07
2022-12-04T10:42:28.946Z,102.75
2022-12-04T10:44:57.956Z,106.53
2022-12-04T10:47:26.318Z,103.03
2022-12-04T10:50:00.553Z,125.20
2022-12-04T10:52:28.219Z,112.60
2022-12-04T10:54:59.494Z,110.55
2022-12-04T10:57:37.688Z,119.07
2022-12-04T11:00:26.827Z,116.43
2022-12-04T11:02:56.836Z,101.18
2022-12-04T11:05:28.023Z,99.15
2022-12-04T11:07:56.931Z,101.38
2022-12-04T11:10:35.879Z,98.05
2022-12-04T11:13:06.379Z,96.07
2022-12-04T11:15:42.980Z,108.97
2022-12-04T11:18:16.297Z,124.60
2022-12-04T11:20:50.414Z,145.77
2022-12-04T11:23:19.232Z,102.05
2022-12-04T11:25:48.758Z,115.72
2022-12-04T11:28:39.711Z,93.82
2022-12-04T11:31:10.407Z,106.93
2022-12-04T11:33:41.146Z,108.35
2022-12-04T11:36:20.588Z,101.55
2022-12-04T11:38:48.622Z,134.73
2022-12-04T11:43:55.367Z,135.05
2022-12-04T11:46:30.729Z,110.00
2022-12-04T11:48:59.056Z,151.55
2022-12-04T11:54:04.756Z,172.43
2022-12-04T11:56:35.652Z,100.60
2022-12-04T11:59:24.767Z,121.50
2022-12-04T12:02:04.147Z,119.95
2022-12-04T12:04:57.181Z,106.53
2022-12-04T12:07:35.428Z,106.57
2022-12-04T12:10:11.425Z,86.82
2022-12-04T12:12:54.652Z,100.70
2022-12-04T12:15:32.392Z,98.78
2022-12-04T12:18:20.829Z,96.78
2022-12-04T12:21:00.663Z,96.13
2022-12-04T12:23:42.905Z,82.45
2022-12-04T12:26:12.960Z,80.80
2022-12-04T12:29:01.938Z,98.55
2022-12-04T12:31:47.383Z,88.40
2022-12-04T12:34:33.118Z,94.80
2022-12-04T12:37:03.608Z,74.53
2022-12-04T12:39:40.159Z,73.20
2022-12-04T12:42:13.585Z,68.47
2022-12-04T12:44:49.507Z,74.40
2022-12-04T12:47:20.601Z,90.10
2022-12-04T12:49:56.440Z,97.20
2022-12-04T12:52:31.600Z,123.05
2022-12-04T12:55:04.091Z,146.82
2022-12-04T12:57:37.296Z,83.95
2022-12-04T13:00:08.656Z,80.25
2022-12-04T13:02:43.622Z,75.55
2022-12-04T13:05:16.541Z,105.47
2022-12-04T13:07:51.042Z,87.53
2022-12-04T13:10:25.099Z,73.95
2022-12-04T13:12:57.352Z,73.57
2022-12-04T13:15:29.411Z,79.40
2022-12-04T13:17:59.071Z,79.30
2022-12-04T13:20:35.996Z,72.75
2022-12-04T13:23:19.127Z,96.40
2022-12-04T13:25:56.695Z,119.47
2022-12-04T13:28:42.267Z,109.28
2022-12-04T13:31:24.757Z,84.32
2022-12-04T13:34:04.441Z,82.05
2022-12-04T13:36:49.917Z,88.97
2022-12-04T13:40:04.595Z,82.38
2022-12-04T13:42:32.970Z,86.95
2022-12-04T13:45:07.405Z,120.13
2022-12-04T13:47:36.430Z,90.00
2022-12-04T13:50:10.459Z,120.20
2022-12-04T13:52:42.454Z,126.25
2022-12-04T13:55:26.082Z,192.43
2022-12-04T13:57:55.014Z,120.22
2022-12-04T14:00:31.349Z,179.88
2022-12-04T14:03:01.088Z,273.95
2022-12-04T14:05:31.873Z,305.25
2022-12-04T14:08:08.203Z,351.52
2022-12-04T14:10:38.509Z,337.58
2022-12-04T14:13:16.955Z,320.80
2022-12-04T14:15:44.811Z,360.40
2022-12-04T14:18:25.133Z,281.05
2022-12-04T14:20:59.876Z,379.80
2022-12-04T14:23:36.430Z,320.88
2022-12-04T14:26:05.287Z,390.45
2022-12-04T14:28:42.666Z,338.27
2022-12-04T14:31:26.548Z,388.23
2022-12-04T14:33:58.149Z,329.52
2022-12-04T14:36:28.315Z,311.58
2022-12-04T14:39:13.594Z,227.20
2022-12-04T14:41:41.922Z,241.07
2022-12-04T14:44:23.907Z,113.10
2022-12-04T14:46:53.910Z,106.55
2022-12-04T14:49:35.900Z,137.00
2022-12-04T14:52:11.498Z,130.27
2022-12-04T14:54:52.114Z,82.63
2022-12-04T14:57:33.847Z,88.43
2022-12-04T15:00:01.947Z,110.97
2022-12-04T15:05:03.300Z,121.45
2022-12-04T15:07:32.823Z,139.20
2022-12-04T15:10:21.062Z,155.93
2022-12-04T15:12:50.631Z,124.60
2022-12-04T15:15:25.108Z,139.02
2022-12-04T15:18:04.109Z,120.75
2022-12-04T15:20:39.048Z,116.78
2022-12-04T15:23:07.112Z,113.97
2022-12-04T15:25:40.610Z,98.45
2022-12-04T15:28:15.199Z,96.03
2022-12-04T15:30:44.910Z,119.45
2022-12-04T15:33:21.139Z,96.35
2022-12-04T15:35:55.019Z,98.28
2022-12-04T15:41:31.162Z,114.70
2022-12-04T15:43:59.483Z,100.80
2022-12-04T15:46:31.541Z,96.68
2022-12-04T15:49:07.599Z,130.50
2022-12-04T15:51:35.256Z,123.28
2022-12-04T15:54:03.517Z,95.65
2022-12-04T15:56:32.640Z,97.13
2022-12-04T15:59:02.870Z,99.05
2022-12-04T16:01:40.647Z,125.85
2022-12-04T16:04:20.659Z,123.88
2022-12-04T16:06:50.060Z,143.98
2022-12-04T16:09:22.901Z,131.07
2022-12-04T16:12:01.592Z,106.00
2022-12-04T16:14:29.383Z,109.05
2022-12-04T16:17:05.629Z,132.18
2022-12-04T16:19:35.585Z,99.37
2022-12-04T16:22:05.906Z,144.23
2022-12-04T16:24:33.384Z,123.32
2022-12-04T16:27:02.270Z,106.88
2022-12-04T16:29:30.459Z,109.25
2022-12-04T16:32:02.925Z,88.00
2022-12-04T16:34:30.650Z,89.15
2022-12-04T16:36:59.669Z,97.25
2022-12-04T16:39:27.127Z,94.82
2022-12-04T16:41:54.603Z,90.35
2022-12-04T16:44:23.392Z,85.15
2022-12-04T16:46:51.644Z,96.03
2022-12-04T16:49:19.145Z,93.43
2022-12-04T16:51:50.431Z,96.63
2022-12-04T16:54:18.198Z,165.07
2022-12-04T16:56:45.705Z,99.10
2022-12-04T16:59:13.290Z,144.05
2022-12-04T17:01:45.565Z,177.43
2022-12-04T17:04:13.187Z,280.85
2022-12-04T17:06:41.408Z,360.98
2022-12-04T17:09:09.653Z,290.15
2022-12-04T17:11:37.309Z,332.65
2022-12-04T17:14:07.219Z,408.55
2022-12-04T17:16:35.074Z,238.05
2022-12-04T17:19:04.555Z,133.77
2022-12-04T17:21:32.425Z,114.30
2022-12-04T17:23:59.953Z,110.65
2022-12-04T17:26:28.194Z,104.07
2022-12-04T17:28:55.672Z,91.60
2022-12-04T17:31:25.901Z,116.00
2022-12-04T17:33:54.114Z,120.57
2022-12-04T17:36:26.143Z,120.80
2022-12-04T17:38:55.232Z,89.90
2022-12-04T17:41:22.778Z,111.20
2022-12-04T17:43:50.552Z,95.55
2022-12-04T17:46:21.636Z,106.20
2022-12-04T17:48:49.979Z,76.78
2022-12-04T17:51:19.855Z,83.47
2022-12-04T17:53:49.086Z,85.57
2022-12-04T17:56:18.501Z,101.63
2022-12-04T17:58:47.045Z,133.40
2022-12-04T18:01:16.845Z,256.50
2022-12-04T18:03:46.023Z,279.15
2022-12-04T18:06:15.557Z,260.75
2022-12-04T18:08:49.581Z,302.55
2022-12-04T18:11:20.575Z,328.80
2022-12-04T18:13:48.820Z,447.63
2022-12-04T18:16:16.428Z,518.40
2022-12-04T18:18:46.581Z,592.85
2022-12-04T18:21:14.845Z,604.65
2022-12-04T18:23:45.139Z,461.05
2022-12-04T18:26:18.054Z,567.83
2022-12-04T18:28:47.597Z,538.35
2022-12-04T18:31:17.765Z,448.27
2022-12-04T18:33:46.156Z,485.20
2022-12-04T18:36:15.865Z,463.27
2022-12-04T18:38:43.503Z,430.33
2022-12-04T18:41:13.188Z,419.73
2022-12-04T18:43:42.487Z,367.77
2022-12-04T18:46:13.613Z,138.02
2022-12-04T18:48:42.109Z,412.58
2022-12-04T18:51:18.835Z,279.23
2022-12-04T18:53:47.054Z,213.30
2022-12-04T18:56:14.841Z,349.48
2022-12-04T18:58:43.059Z,135.10
2022-12-04T19:01:13.849Z,282.20
2022-12-04T19:03:42.223Z,323.27
2022-12-04T19:06:10.061Z,271.98
2022-12-04T19:08:42.682Z,198.23
2022-12-04T19:11:13.382Z,183.40
2022-12-04T19:13:41.221Z,172.80
2022-12-04T19:16:14.104Z,236.38
2022-12-04T19:18:42.054Z,191.60
2022-12-04T19:21:09.769Z,222.65
2022-12-04T19:23:37.534Z,183.50
2022-12-04T19:26:05.398Z,190.27
2022-12-04T19:28:33.291Z,144.43
2022-12-04T19:31:00.801Z,164.32
2022-12-04T19:33:29.770Z,154.75
2022-12-04T19:35:58.570Z,133.85
2022-12-04T19:38:26.360Z,149.95
2022-12-04T19:41:04.472Z,125.32
2022-12-04T19:43:32.303Z,187.68
2022-12-04T19:45:59.840Z,169.50
2022-12-04T19:48:29.090Z,194.40
2022-12-04T19:50:56.732Z,162.50
2022-12-04T19:53:24.211Z,196.20
2022-12-04T19:55:52.651Z,182.38
2022-12-04T19:58:20.099Z,158.35
2022-12-04T20:00:48.752Z,152.63
2022-12-04T20:03:16.231Z,159.23
2022-12-04T20:05:45.053Z,141.60
2022-12-04T20:10:39.060Z,155.60
2022-12-04T20:13:06.571Z,148.43
2022-12-04T20:15:36.136Z,142.85
2022-12-04T20:18:03.951Z,150.77
2022-12-04T20:20:31.945Z,157.52
2022-12-04T20:25:28.093Z,184.32
2022-12-04T20:27:55.570Z,161.98
2022-12-04T20:30:23.113Z,129.15
2022-12-04T20:32:50.634Z,140.80
2022-12-04T20:35:18.317Z,155.10
2022-12-04T20:37:45.793Z,130.10
2022-12-04T20:40:16.141Z,129.90
2022-12-04T20:42:43.936Z,122.32
2022-12-04T20:45:12.287Z,122.72
2022-12-04T20:47:39.923Z,106.90
2022-12-04T20:50:11.644Z,104.90
2022-12-04T20:52:39.135Z,118.90
2022-12-04T20:55:07.605Z,109.75
2022-12-04T20:57:37.366Z,98.03
2022-12-04T21:00:05.900Z,99.13
2022-12-04T21:02:33.516Z,110.57
2022-12-04T21:05:01.249Z,106.88
2022-12-04T21:07:28.748Z,106.80
2022-12-04T21:09:57.323Z,123.75
2022-12-04T21:12:43.443Z,115.03
2022-12-04T21:15:30.191Z,120.07
2022-12-04T21:18:01.257Z,131.40
2022-12-04T21:20:28.740Z,121.82
2022-12-04T21:22:56.305Z,143.05
2022-12-04T21:25:25.167Z,106.97
2022-12-04T21:27:53.191Z,104.65
2022-12-04T21:30:21.983Z,100.07
2022-12-04T21:32:49.643Z,92.47
2022-12-04T21:35:17.150Z,110.78
2022-12-04T21:37:44.793Z,98.63
2022-12-04T21:40:12.632Z,112.85
2022-12-04T21:42:40.260Z,122.40
2022-12-04T22:00:05.676Z,126.00
2022-12-04T22:02:33.206Z,111.47
2022-12-04T22:05:00.712Z,119.50
2022-12-04T22:07:28.210Z,99.63
2022-12-04T22:09:56.203Z,105.25
2022-12-04T22:15:12.799Z,150.95
2022-12-04T22:17:41.318Z,147.27
2022-12-04T22:20:09.434Z,122.72
2022-12-04T22:25:04.474Z,156.07
2022-12-04T22:27:31.929Z,141.00
2022-12-04T22:29:59.867Z,159.90
2022-12-04T22:32:28.765Z,162.00
2022-12-04T22:34:56.223Z,191.30
2022-12-04T22:37:24.335Z,188.20
2022-12-04T22:42:19.114Z,186.13
2022-12-04T22:44:46.583Z,225.32
2022-12-04T22:47:14.059Z,253.82
2022-12-04T22:49:42.878Z,308.38
2022-12-04T22:52:10.385Z,267.92
2022-12-04T22:54:37.882Z,358.17
2022-12-04T22:57:05.581Z,289.40
2022-12-04T22:59:33.114Z,428.40
2022-12-04T23:02:01.032Z,462.27
2022-12-04T23:04:29.271Z,410.20
2022-12-04T23:06:58.124Z,431.27
2022-12-04T23:09:26.066Z,444.55
2022-12-04T23:11:54.467Z,406.85
2022-12-04T23:14:22.374Z,442.63
2022-12-04T23:16:50.348Z,394.73
2022-12-04T23:21:50.821Z,234.82
2022-12-04T23:24:23.957Z,333.77
2022-12-04T23:26:51.417Z,404.92
2022-12-04T23:29:44.804Z,386.60
2022-12-04T23:32:06.440Z,350.52
2022-12-04T23:34:34.271Z,353.05
2022-12-04T23:37:01.767Z,349.48
2022-12-04T23:39:30.971Z,341.90
2022-12-04T23:41:58.430Z,318.38
2022-12-04T23:44:25.888Z,324.25
2022-12-04T23:46:53.425Z,268.00
2022-12-04T23:49:21.149Z,273.75
2022-12-04T23:51:48.619Z,287.42
2022-12-04T23:54:16.088Z,212.82
2022-12-04T23:56:44.921Z,225.40
2022-12-04T23:59:12.428Z,216.00
